WLG weather

Wellington International Airport
Wellington, Wellington Region, New Zealand

Public forecast

Using degrees Celsius for public forecast. Weather courtesy of forecast.io.

Current aviation weather report (METAR) for Wellington International Airport

Retrieved 2019/10/18 18:30 UTC (1 hour ago):

NZWN 181830Z AUTO 02015KT 9999 FEW030/// BKN041/// OVC060/// 13/10 Q1002 TEMPO 6000 RA BKN014 FEW020TCU

Aviation forecast (TAF) for Wellington International Airport

Retrieved 2019/10/18 18:03 UTC (2 hours ago):

TAF NZWN 181700Z 1818/1918 36020G30KT 9999 -RA FEW020 BKN030 TEMPO 1818/1821 6000 RA BKN014 FEW020TCU FM182300 34012KT 9999 SCT040 BECMG 1901/1903 19005KT BECMG 1906/1908 01010KT